sensor_id;sensor_type;location;lat;lon;timestamp;P1;durP1;ratioP1;P2;durP2;ratioP2
14704;SDS011;7442;50.840;3.396;2023-06-24T00:04:13;2.90;;;2.70;;
14704;SDS011;7442;50.840;3.396;2023-06-24T00:07:01;2.50;;;2.30;;
14704;SDS011;7442;50.840;3.396;2023-06-24T00:09:47;3.25;;;2.70;;
14704;SDS011;7442;50.840;3.396;2023-06-24T00:12:33;3.10;;;2.65;;
14704;SDS011;7442;50.840;3.396;2023-06-24T00:15:20;2.60;;;2.40;;
14704;SDS011;7442;50.840;3.396;2023-06-24T00:18:06;3.67;;;2.77;;
14704;SDS011;7442;50.840;3.396;2023-06-24T00:20:54;3.12;;;2.65;;
14704;SDS011;7442;50.840;3.396;2023-06-24T00:23:42;2.77;;;2.55;;
14704;SDS011;7442;50.840;3.396;2023-06-24T00:26:29;4.37;;;3.05;;
14704;SDS011;7442;50.840;3.396;2023-06-24T00:29:16;3.55;;;2.60;;
14704;SDS011;7442;50.840;3.396;2023-06-24T00:32:02;3.70;;;2.70;;
14704;SDS011;7442;50.840;3.396;2023-06-24T00:34:49;2.60;;;2.40;;
14704;SDS011;7442;50.840;3.396;2023-06-24T00:37:38;3.92;;;2.70;;
14704;SDS011;7442;50.840;3.396;2023-06-24T00:40:24;4.62;;;3.12;;
14704;SDS011;7442;50.840;3.396;2023-06-24T00:43:10;2.90;;;2.52;;
14704;SDS011;7442;50.840;3.396;2023-06-24T00:45:57;3.05;;;2.75;;
14704;SDS011;7442;50.840;3.396;2023-06-24T00:48:44;2.72;;;2.47;;
14704;SDS011;7442;50.840;3.396;2023-06-24T00:51:30;2.75;;;2.47;;
14704;SDS011;7442;50.840;3.396;2023-06-24T00:54:18;2.72;;;2.52;;
14704;SDS011;7442;50.840;3.396;2023-06-24T00:57:05;4.33;;;2.75;;
14704;SDS011;7442;50.840;3.396;2023-06-24T00:59:51;2.65;;;2.45;;
14704;SDS011;7442;50.840;3.396;2023-06-24T01:02:37;3.40;;;2.83;;
14704;SDS011;7442;50.840;3.396;2023-06-24T01:05:28;2.72;;;2.42;;
14704;SDS011;7442;50.840;3.396;2023-06-24T01:08:16;4.60;;;2.37;;
14704;SDS011;7442;50.840;3.396;2023-06-24T01:11:05;2.95;;;2.65;;
14704;SDS011;7442;50.840;3.396;2023-06-24T01:13:51;3.05;;;2.67;;
14704;SDS011;7442;50.840;3.396;2023-06-24T01:16:55;2.87;;;2.65;;
14704;SDS011;7442;50.840;3.396;2023-06-24T01:23:06;2.95;;;2.60;;
14704;SDS011;7442;50.840;3.396;2023-06-24T01:31:49;2.67;;;2.47;;
14704;SDS011;7442;50.840;3.396;2023-06-24T01:34:39;2.60;;;2.40;;
14704;SDS011;7442;50.840;3.396;2023-06-24T01:43:13;3.00;;;2.70;;
14704;SDS011;7442;50.840;3.396;2023-06-24T01:46:02;2.85;;;2.55;;
14704;SDS011;7442;50.840;3.396;2023-06-24T01:48:52;2.80;;;2.60;;
14704;SDS011;7442;50.840;3.396;2023-06-24T01:51:41;2.65;;;2.45;;
14704;SDS011;7442;50.840;3.396;2023-06-24T01:54:29;2.55;;;2.35;;
14704;SDS011;7442;50.840;3.396;2023-06-24T01:57:16;3.67;;;2.37;;
14704;SDS011;7442;50.840;3.396;2023-06-24T02:00:04;2.98;;;2.40;;
14704;SDS011;7442;50.840;3.396;2023-06-24T02:02:53;3.58;;;2.72;;
14704;SDS011;7442;50.840;3.396;2023-06-24T02:05:41;2.87;;;2.67;;
14704;SDS011;7442;50.840;3.396;2023-06-24T02:08:32;3.47;;;2.98;;
14704;SDS011;7442;50.840;3.396;2023-06-24T02:11:21;3.20;;;2.80;;
14704;SDS011;7442;50.840;3.396;2023-06-24T02:14:08;4.53;;;2.80;;
14704;SDS011;7442;50.840;3.396;2023-06-24T02:16:56;4.72;;;2.70;;
14704;SDS011;7442;50.840;3.396;2023-06-24T02:19:45;3.15;;;2.60;;
14704;SDS011;7442;50.840;3.396;2023-06-24T02:22:33;3.75;;;2.45;;
14704;SDS011;7442;50.840;3.396;2023-06-24T02:25:20;2.92;;;2.60;;
14704;SDS011;7442;50.840;3.396;2023-06-24T02:28:07;2.50;;;2.30;;
14704;SDS011;7442;50.840;3.396;2023-06-24T02:30:54;2.87;;;2.62;;
14704;SDS011;7442;50.840;3.396;2023-06-24T02:33:42;2.60;;;2.40;;
14704;SDS011;7442;50.840;3.396;2023-06-24T02:36:28;2.62;;;2.42;;
14704;SDS011;7442;50.840;3.396;2023-06-24T02:39:15;3.47;;;2.70;;
14704;SDS011;7442;50.840;3.396;2023-06-24T02:42:01;2.60;;;2.40;;
14704;SDS011;7442;50.840;3.396;2023-06-24T02:44:47;3.00;;;2.70;;
14704;SDS011;7442;50.840;3.396;2023-06-24T02:47:33;2.70;;;2.50;;
14704;SDS011;7442;50.840;3.396;2023-06-24T02:50:20;2.90;;;2.50;;
14704;SDS011;7442;50.840;3.396;2023-06-24T02:53:08;3.70;;;2.72;;
14704;SDS011;7442;50.840;3.396;2023-06-24T02:55:55;2.85;;;2.65;;
14704;SDS011;7442;50.840;3.396;2023-06-24T02:58:42;2.80;;;2.50;;
14704;SDS011;7442;50.840;3.396;2023-06-24T03:01:29;2.85;;;2.55;;
14704;SDS011;7442;50.840;3.396;2023-06-24T03:04:17;2.60;;;2.40;;
14704;SDS011;7442;50.840;3.396;2023-06-24T03:07:05;2.42;;;2.20;;
14704;SDS011;7442;50.840;3.396;2023-06-24T03:09:53;2.90;;;2.60;;
14704;SDS011;7442;50.840;3.396;2023-06-24T03:12:39;2.40;;;2.20;;
14704;SDS011;7442;50.840;3.396;2023-06-24T03:15:26;3.05;;;2.60;;
14704;SDS011;7442;50.840;3.396;2023-06-24T03:18:13;2.72;;;2.42;;
14704;SDS011;7442;50.840;3.396;2023-06-24T03:20:59;2.87;;;2.67;;
14704;SDS011;7442;50.840;3.396;2023-06-24T03:23:45;2.60;;;2.40;;
14704;SDS011;7442;50.840;3.396;2023-06-24T03:26:34;2.70;;;2.50;;
14704;SDS011;7442;50.840;3.396;2023-06-24T03:29:21;2.67;;;2.37;;
14704;SDS011;7442;50.840;3.396;2023-06-24T03:32:08;2.65;;;2.45;;
14704;SDS011;7442;50.840;3.396;2023-06-24T03:34:54;3.25;;;2.60;;
14704;SDS011;7442;50.840;3.396;2023-06-24T03:37:40;2.85;;;2.55;;
14704;SDS011;7442;50.840;3.396;2023-06-24T03:40:27;2.70;;;2.42;;
14704;SDS011;7442;50.840;3.396;2023-06-24T03:43:13;3.17;;;2.62;;
14704;SDS011;7442;50.840;3.396;2023-06-24T03:45:59;2.87;;;2.67;;
14704;SDS011;7442;50.840;3.396;2023-06-24T03:48:47;3.00;;;2.65;;
14704;SDS011;7442;50.840;3.396;2023-06-24T03:51:35;3.35;;;2.75;;
14704;SDS011;7442;50.840;3.396;2023-06-24T03:54:22;2.58;;;2.37;;
14704;SDS011;7442;50.840;3.396;2023-06-24T03:57:08;2.87;;;2.35;;
14704;SDS011;7442;50.840;3.396;2023-06-24T03:59:55;2.40;;;2.20;;
14704;SDS011;7442;50.840;3.396;2023-06-24T04:02:41;3.30;;;2.37;;
14704;SDS011;7442;50.840;3.396;2023-06-24T04:05:29;3.77;;;2.77;;
14704;SDS011;7442;50.840;3.396;2023-06-24T04:08:15;2.50;;;2.30;;
14704;SDS011;7442;50.840;3.396;2023-06-24T04:11:02;2.90;;;2.60;;
14704;SDS011;7442;50.840;3.396;2023-06-24T04:13:48;3.12;;;2.70;;
14704;SDS011;7442;50.840;3.396;2023-06-24T04:16:35;2.65;;;2.45;;
14704;SDS011;7442;50.840;3.396;2023-06-24T04:19:22;2.85;;;2.50;;
14704;SDS011;7442;50.840;3.396;2023-06-24T04:22:08;2.95;;;2.58;;
14704;SDS011;7442;50.840;3.396;2023-06-24T04:24:54;2.50;;;2.30;;
14704;SDS011;7442;50.840;3.396;2023-06-24T04:27:40;3.17;;;2.58;;
14704;SDS011;7442;50.840;3.396;2023-06-24T04:30:28;3.02;;;2.47;;
14704;SDS011;7442;50.840;3.396;2023-06-24T04:33:14;2.60;;;2.40;;
14704;SDS011;7442;50.840;3.396;2023-06-24T04:36:01;2.70;;;2.50;;
14704;SDS011;7442;50.840;3.396;2023-06-24T04:38:47;3.12;;;2.62;;
14704;SDS011;7442;50.840;3.396;2023-06-24T04:41:33;3.52;;;2.40;;
14704;SDS011;7442;50.840;3.396;2023-06-24T04:44:20;2.72;;;2.52;;
14704;SDS011;7442;50.840;3.396;2023-06-24T04:47:06;3.08;;;2.30;;
14704;SDS011;7442;50.840;3.396;2023-06-24T04:49:53;2.80;;;2.60;;
14704;SDS011;7442;50.840;3.396;2023-06-24T04:52:39;2.83;;;2.52;;
14704;SDS011;7442;50.840;3.396;2023-06-24T04:55:26;2.65;;;2.45;;
14704;SDS011;7442;50.840;3.396;2023-06-24T04:58:14;3.22;;;2.70;;
14704;SDS011;7442;50.840;3.396;2023-06-24T05:01:01;3.42;;;3.00;;
14704;SDS011;7442;50.840;3.396;2023-06-24T05:03:47;3.20;;;2.90;;
14704;SDS011;7442;50.840;3.396;2023-06-24T05:06:33;2.90;;;2.60;;
14704;SDS011;7442;50.840;3.396;2023-06-24T05:09:19;2.90;;;2.47;;
14704;SDS011;7442;50.840;3.396;2023-06-24T05:12:05;3.42;;;2.87;;
14704;SDS011;7442;50.840;3.396;2023-06-24T05:14:53;3.47;;;3.10;;
14704;SDS011;7442;50.840;3.396;2023-06-24T05:17:39;2.37;;;2.17;;
14704;SDS011;7442;50.840;3.396;2023-06-24T05:20:25;2.77;;;2.58;;
14704;SDS011;7442;50.840;3.396;2023-06-24T05:23:11;2.95;;;2.65;;
14704;SDS011;7442;50.840;3.396;2023-06-24T05:25:58;2.85;;;2.55;;
14704;SDS011;7442;50.840;3.396;2023-06-24T05:28:44;2.95;;;2.65;;
14704;SDS011;7442;50.840;3.396;2023-06-24T05:31:30;2.92;;;2.62;;
14704;SDS011;7442;50.840;3.396;2023-06-24T05:34:16;3.27;;;2.98;;
14704;SDS011;7442;50.840;3.396;2023-06-24T05:37:03;2.87;;;2.67;;
14704;SDS011;7442;50.840;3.396;2023-06-24T05:39:49;3.20;;;2.80;;
14704;SDS011;7442;50.840;3.396;2023-06-24T05:42:36;3.15;;;2.67;;
14704;SDS011;7442;50.840;3.396;2023-06-24T05:45:23;2.67;;;2.47;;
14704;SDS011;7442;50.840;3.396;2023-06-24T05:48:09;2.90;;;2.70;;
14704;SDS011;7442;50.840;3.396;2023-06-24T05:50:56;2.92;;;2.40;;
14704;SDS011;7442;50.840;3.396;2023-06-24T05:53:43;4.45;;;2.62;;
14704;SDS011;7442;50.840;3.396;2023-06-24T05:56:29;2.75;;;2.55;;
14704;SDS011;7442;50.840;3.396;2023-06-24T05:59:16;3.10;;;2.75;;
14704;SDS011;7442;50.840;3.396;2023-06-24T06:02:02;3.10;;;2.80;;
14704;SDS011;7442;50.840;3.396;2023-06-24T06:04:49;2.98;;;2.75;;
14704;SDS011;7442;50.840;3.396;2023-06-24T06:07:36;3.35;;;2.77;;
14704;SDS011;7442;50.840;3.396;2023-06-24T06:10:24;3.02;;;2.72;;
14704;SDS011;7442;50.840;3.396;2023-06-24T06:13:12;2.85;;;2.65;;
14704;SDS011;7442;50.840;3.396;2023-06-24T06:15:58;2.67;;;2.45;;
14704;SDS011;7442;50.840;3.396;2023-06-24T06:18:45;3.15;;;2.85;;
14704;SDS011;7442;50.840;3.396;2023-06-24T06:21:31;4.15;;;3.08;;
14704;SDS011;7442;50.840;3.396;2023-06-24T06:24:18;2.65;;;2.45;;
14704;SDS011;7442;50.840;3.396;2023-06-24T06:27:04;3.40;;;3.10;;
14704;SDS011;7442;50.840;3.396;2023-06-24T06:29:52;3.33;;;3.00;;
14704;SDS011;7442;50.840;3.396;2023-06-24T06:32:38;3.20;;;2.87;;
14704;SDS011;7442;50.840;3.396;2023-06-24T06:35:25;9.90;;;4.42;;
14704;SDS011;7442;50.840;3.396;2023-06-24T06:38:14;6.83;;;5.05;;
14704;SDS011;7442;50.840;3.396;2023-06-24T06:41:00;5.87;;;4.25;;
14704;SDS011;7442;50.840;3.396;2023-06-24T06:43:47;7.42;;;4.87;;
14704;SDS011;7442;50.840;3.396;2023-06-24T06:46:33;7.53;;;4.97;;
14704;SDS011;7442;50.840;3.396;2023-06-24T06:49:20;7.58;;;4.75;;
14704;SDS011;7442;50.840;3.396;2023-06-24T06:52:06;6.87;;;4.47;;
14704;SDS011;7442;50.840;3.396;2023-06-24T06:54:53;6.85;;;4.90;;
14704;SDS011;7442;50.840;3.396;2023-06-24T06:57:39;6.50;;;5.35;;
14704;SDS011;7442;50.840;3.396;2023-06-24T07:00:26;5.58;;;4.92;;
14704;SDS011;7442;50.840;3.396;2023-06-24T07:03:12;7.67;;;5.12;;
14704;SDS011;7442;50.840;3.396;2023-06-24T07:05:58;5.53;;;4.55;;
14704;SDS011;7442;50.840;3.396;2023-06-24T07:08:44;4.75;;;4.20;;
14704;SDS011;7442;50.840;3.396;2023-06-24T07:11:31;7.15;;;4.30;;
14704;SDS011;7442;50.840;3.396;2023-06-24T07:14:17;4.67;;;3.77;;
14704;SDS011;7442;50.840;3.396;2023-06-24T07:17:04;6.45;;;3.83;;
14704;SDS011;7442;50.840;3.396;2023-06-24T07:19:50;6.17;;;4.00;;
14704;SDS011;7442;50.840;3.396;2023-06-24T07:22:37;6.80;;;4.00;;
14704;SDS011;7442;50.840;3.396;2023-06-24T07:25:23;5.12;;;3.58;;
14704;SDS011;7442;50.840;3.396;2023-06-24T07:28:11;4.47;;;3.60;;
14704;SDS011;7442;50.840;3.396;2023-06-24T07:30:57;6.55;;;3.80;;
14704;SDS011;7442;50.840;3.396;2023-06-24T07:33:43;5.85;;;3.52;;
14704;SDS011;7442;50.840;3.396;2023-06-24T07:36:30;5.25;;;3.58;;
14704;SDS011;7442;50.840;3.396;2023-06-24T07:39:16;6.62;;;3.80;;
14704;SDS011;7442;50.840;3.396;2023-06-24T07:42:02;5.47;;;3.90;;
14704;SDS011;7442;50.840;3.396;2023-06-24T07:44:49;6.25;;;3.35;;
14704;SDS011;7442;50.840;3.396;2023-06-24T07:47:36;3.80;;;3.00;;
14704;SDS011;7442;50.840;3.396;2023-06-24T07:50:22;5.30;;;3.25;;
14704;SDS011;7442;50.840;3.396;2023-06-24T07:53:09;6.92;;;3.40;;
14704;SDS011;7442;50.840;3.396;2023-06-24T07:55:55;5.62;;;3.30;;
14704;SDS011;7442;50.840;3.396;2023-06-24T07:58:41;5.62;;;3.50;;
14704;SDS011;7442;50.840;3.396;2023-06-24T08:01:28;5.35;;;3.17;;
14704;SDS011;7442;50.840;3.396;2023-06-24T08:04:14;5.37;;;3.33;;
14704;SDS011;7442;50.840;3.396;2023-06-24T08:07:00;5.45;;;2.77;;
14704;SDS011;7442;50.840;3.396;2023-06-24T08:09:49;3.40;;;2.85;;
14704;SDS011;7442;50.840;3.396;2023-06-24T08:12:36;7.35;;;3.05;;
14704;SDS011;7442;50.840;3.396;2023-06-24T08:15:22;6.80;;;3.15;;
14704;SDS011;7442;50.840;3.396;2023-06-24T08:18:08;4.67;;;3.30;;
14704;SDS011;7442;50.840;3.396;2023-06-24T08:20:55;4.25;;;2.70;;
14704;SDS011;7442;50.840;3.396;2023-06-24T08:23:43;4.03;;;2.90;;
14704;SDS011;7442;50.840;3.396;2023-06-24T08:26:31;4.08;;;3.10;;
14704;SDS011;7442;50.840;3.396;2023-06-24T08:29:17;2.98;;;2.60;;
14704;SDS011;7442;50.840;3.396;2023-06-24T08:32:04;3.37;;;2.98;;
14704;SDS011;7442;50.840;3.396;2023-06-24T08:34:53;3.77;;;3.05;;
14704;SDS011;7442;50.840;3.396;2023-06-24T08:37:40;7.25;;;3.22;;
14704;SDS011;7442;50.840;3.396;2023-06-24T08:40:27;5.30;;;3.40;;
14704;SDS011;7442;50.840;3.396;2023-06-24T08:43:14;5.35;;;3.20;;
14704;SDS011;7442;50.840;3.396;2023-06-24T08:46:00;6.20;;;2.85;;
14704;SDS011;7442;50.840;3.396;2023-06-24T08:48:48;4.22;;;3.05;;
14704;SDS011;7442;50.840;3.396;2023-06-24T08:51:38;3.72;;;2.70;;
14704;SDS011;7442;50.840;3.396;2023-06-24T08:54:26;3.70;;;3.08;;
14704;SDS011;7442;50.840;3.396;2023-06-24T08:57:13;6.40;;;2.72;;
14704;SDS011;7442;50.840;3.396;2023-06-24T08:59:59;5.80;;;2.70;;
14704;SDS011;7442;50.840;3.396;2023-06-24T09:02:46;3.70;;;2.52;;
14704;SDS011;7442;50.840;3.396;2023-06-24T09:05:32;7.60;;;3.42;;
14704;SDS011;7442;50.840;3.396;2023-06-24T09:08:19;3.60;;;2.85;;
14704;SDS011;7442;50.840;3.396;2023-06-24T09:11:08;3.90;;;2.83;;
14704;SDS011;7442;50.840;3.396;2023-06-24T09:13:57;5.67;;;3.15;;
14704;SDS011;7442;50.840;3.396;2023-06-24T09:16:54;6.12;;;3.20;;
14704;SDS011;7442;50.840;3.396;2023-06-24T09:19:39;4.85;;;3.20;;
14704;SDS011;7442;50.840;3.396;2023-06-24T09:22:27;4.83;;;3.02;;
14704;SDS011;7442;50.840;3.396;2023-06-24T09:25:18;5.37;;;2.92;;
14704;SDS011;7442;50.840;3.396;2023-06-24T09:28:05;4.15;;;2.75;;
14704;SDS011;7442;50.840;3.396;2023-06-24T09:31:10;3.37;;;3.00;;
14704;SDS011;7442;50.840;3.396;2023-06-24T09:33:56;4.00;;;2.75;;
14704;SDS011;7442;50.840;3.396;2023-06-24T09:36:45;3.30;;;2.65;;
14704;SDS011;7442;50.840;3.396;2023-06-24T09:39:37;3.02;;;2.72;;
14704;SDS011;7442;50.840;3.396;2023-06-24T09:42:25;5.20;;;2.75;;
14704;SDS011;7442;50.840;3.396;2023-06-24T09:45:12;4.40;;;2.40;;
14704;SDS011;7442;50.840;3.396;2023-06-24T09:47:59;4.17;;;2.92;;
14704;SDS011;7442;50.840;3.396;2023-06-24T09:50:45;3.85;;;2.37;;
14704;SDS011;7442;50.840;3.396;2023-06-24T09:53:33;2.70;;;2.00;;
14704;SDS011;7442;50.840;3.396;2023-06-24T09:56:20;3.40;;;2.60;;
14704;SDS011;7442;50.840;3.396;2023-06-24T09:59:06;2.62;;;2.42;;
14704;SDS011;7442;50.840;3.396;2023-06-24T10:01:53;6.92;;;2.62;;
14704;SDS011;7442;50.840;3.396;2023-06-24T10:04:42;6.05;;;2.90;;
14704;SDS011;7442;50.840;3.396;2023-06-24T10:07:31;3.10;;;2.30;;
14704;SDS011;7442;50.840;3.396;2023-06-24T10:10:19;3.60;;;2.65;;
14704;SDS011;7442;50.840;3.396;2023-06-24T10:13:06;6.62;;;2.50;;
14704;SDS011;7442;50.840;3.396;2023-06-24T10:15:52;6.50;;;2.52;;
14704;SDS011;7442;50.840;3.396;2023-06-24T10:18:40;4.85;;;2.37;;
14704;SDS011;7442;50.840;3.396;2023-06-24T10:24:41;7.55;;;2.70;;
14704;SDS011;7442;50.840;3.396;2023-06-24T10:27:29;3.42;;;2.55;;
14704;SDS011;7442;50.840;3.396;2023-06-24T10:30:18;5.03;;;2.83;;
14704;SDS011;7442;50.840;3.396;2023-06-24T10:33:09;4.30;;;2.70;;
14704;SDS011;7442;50.840;3.396;2023-06-24T10:35:58;3.45;;;2.27;;
14704;SDS011;7442;50.840;3.396;2023-06-24T10:38:54;4.95;;;2.35;;
14704;SDS011;7442;50.840;3.396;2023-06-24T10:41:35;3.20;;;2.37;;
14704;SDS011;7442;50.840;3.396;2023-06-24T10:44:22;2.75;;;2.22;;
14704;SDS011;7442;50.840;3.396;2023-06-24T10:47:09;3.87;;;2.55;;
14704;SDS011;7442;50.840;3.396;2023-06-24T10:49:55;4.95;;;2.52;;
14704;SDS011;7442;50.840;3.396;2023-06-24T10:52:43;2.72;;;2.40;;
14704;SDS011;7442;50.840;3.396;2023-06-24T10:55:32;2.72;;;2.17;;
14704;SDS011;7442;50.840;3.396;2023-06-24T10:58:20;3.70;;;2.10;;
14704;SDS011;7442;50.840;3.396;2023-06-24T11:01:08;3.27;;;2.08;;
14704;SDS011;7442;50.840;3.396;2023-06-24T11:03:54;2.45;;;1.80;;
14704;SDS011;7442;50.840;3.396;2023-06-24T11:06:41;4.10;;;2.45;;
14704;SDS011;7442;50.840;3.396;2023-06-24T11:09:27;3.50;;;1.87;;
14704;SDS011;7442;50.840;3.396;2023-06-24T11:12:14;3.10;;;2.00;;
14704;SDS011;7442;50.840;3.396;2023-06-24T11:15:01;2.65;;;1.90;;
14704;SDS011;7442;50.840;3.396;2023-06-24T11:17:50;2.12;;;1.72;;
14704;SDS011;7442;50.840;3.396;2023-06-24T11:20:37;1.82;;;1.70;;
14704;SDS011;7442;50.840;3.396;2023-06-24T11:23:24;3.75;;;1.98;;
14704;SDS011;7442;50.840;3.396;2023-06-24T11:26:11;4.30;;;2.00;;
14704;SDS011;7442;50.840;3.396;2023-06-24T11:28:59;9.55;;;3.42;;
14704;SDS011;7442;50.840;3.396;2023-06-24T11:31:46;7.50;;;3.25;;
14704;SDS011;7442;50.840;3.396;2023-06-24T11:34:32;14.33;;;3.25;;
14704;SDS011;7442;50.840;3.396;2023-06-24T11:37:18;9.55;;;3.72;;
14704;SDS011;7442;50.840;3.396;2023-06-24T11:40:05;11.33;;;2.80;;
14704;SDS011;7442;50.840;3.396;2023-06-24T11:42:52;5.45;;;2.98;;
14704;SDS011;7442;50.840;3.396;2023-06-24T11:45:39;5.05;;;2.55;;
14704;SDS011;7442;50.840;3.396;2023-06-24T11:48:30;4.17;;;2.62;;
14704;SDS011;7442;50.840;3.396;2023-06-24T11:51:13;2.98;;;2.20;;
14704;SDS011;7442;50.840;3.396;2023-06-24T11:54:00;2.47;;;1.98;;
14704;SDS011;7442;50.840;3.396;2023-06-24T11:56:51;3.45;;;2.20;;
14704;SDS011;7442;50.840;3.396;2023-06-24T11:59:39;3.85;;;2.20;;
14704;SDS011;7442;50.840;3.396;2023-06-24T12:02:27;5.78;;;2.25;;
14704;SDS011;7442;50.840;3.396;2023-06-24T12:05:19;3.17;;;2.20;;
14704;SDS011;7442;50.840;3.396;2023-06-24T12:08:12;2.90;;;2.50;;
14704;SDS011;7442;50.840;3.396;2023-06-24T12:10:59;3.37;;;2.37;;
14704;SDS011;7442;50.840;3.396;2023-06-24T12:13:46;3.17;;;2.22;;
14704;SDS011;7442;50.840;3.396;2023-06-24T12:16:32;2.65;;;2.27;;
14704;SDS011;7442;50.840;3.396;2023-06-24T12:19:19;2.87;;;1.85;;
14704;SDS011;7442;50.840;3.396;2023-06-24T12:22:06;2.72;;;2.20;;
14704;SDS011;7442;50.840;3.396;2023-06-24T12:24:53;4.72;;;2.30;;
14704;SDS011;7442;50.840;3.396;2023-06-24T12:27:39;3.30;;;2.30;;
14704;SDS011;7442;50.840;3.396;2023-06-24T12:30:27;2.30;;;2.08;;
14704;SDS011;7442;50.840;3.396;2023-06-24T12:33:14;2.50;;;2.22;;
14704;SDS011;7442;50.840;3.396;2023-06-24T12:36:02;3.42;;;2.80;;
14704;SDS011;7442;50.840;3.396;2023-06-24T12:38:49;3.00;;;2.33;;
14704;SDS011;7442;50.840;3.396;2023-06-24T12:41:35;3.92;;;2.77;;
14704;SDS011;7442;50.840;3.396;2023-06-24T12:44:21;3.95;;;2.35;;
14704;SDS011;7442;50.840;3.396;2023-06-24T12:47:08;2.65;;;2.42;;
14704;SDS011;7442;50.840;3.396;2023-06-24T12:49:54;3.12;;;2.40;;
14704;SDS011;7442;50.840;3.396;2023-06-24T12:52:40;2.92;;;2.65;;
14704;SDS011;7442;50.840;3.396;2023-06-24T12:55:27;3.10;;;2.52;;
14704;SDS011;7442;50.840;3.396;2023-06-24T12:58:13;3.40;;;2.50;;
14704;SDS011;7442;50.840;3.396;2023-06-24T13:01:01;2.52;;;2.30;;
14704;SDS011;7442;50.840;3.396;2023-06-24T13:03:29;3.45;;;2.80;;
14704;SDS011;7442;50.840;3.396;2023-06-24T13:05:57;2.60;;;2.30;;
14704;SDS011;7442;50.840;3.396;2023-06-24T13:08:25;3.75;;;2.40;;
14704;SDS011;7442;50.840;3.396;2023-06-24T13:10:52;3.00;;;2.37;;
14704;SDS011;7442;50.840;3.396;2023-06-24T13:13:23;2.67;;;2.47;;
14704;SDS011;7442;50.840;3.396;2023-06-24T13:15:51;3.08;;;2.40;;
14704;SDS011;7442;50.840;3.396;2023-06-24T13:18:18;2.55;;;2.15;;
14704;SDS011;7442;50.840;3.396;2023-06-24T13:20:46;4.10;;;2.58;;
14704;SDS011;7442;50.840;3.396;2023-06-24T13:23:14;4.08;;;2.52;;
14704;SDS011;7442;50.840;3.396;2023-06-24T13:25:42;4.85;;;2.40;;
14704;SDS011;7442;50.840;3.396;2023-06-24T13:28:10;2.83;;;2.15;;
14704;SDS011;7442;50.840;3.396;2023-06-24T13:30:38;5.10;;;2.42;;
14704;SDS011;7442;50.840;3.396;2023-06-24T13:33:06;3.40;;;2.00;;
14704;SDS011;7442;50.840;3.396;2023-06-24T13:35:34;2.90;;;2.50;;
14704;SDS011;7442;50.840;3.396;2023-06-24T13:38:02;2.70;;;2.50;;
14704;SDS011;7442;50.840;3.396;2023-06-24T13:40:30;2.83;;;2.52;;
14704;SDS011;7442;50.840;3.396;2023-06-24T13:43:16;4.05;;;2.70;;
14704;SDS011;7442;50.840;3.396;2023-06-24T13:45:44;3.05;;;2.85;;
14704;SDS011;7442;50.840;3.396;2023-06-24T13:48:11;2.42;;;2.22;;
14704;SDS011;7442;50.840;3.396;2023-06-24T13:50:40;3.12;;;2.75;;
14704;SDS011;7442;50.840;3.396;2023-06-24T13:53:07;3.77;;;2.20;;
14704;SDS011;7442;50.840;3.396;2023-06-24T13:55:35;2.60;;;2.40;;
14704;SDS011;7442;50.840;3.396;2023-06-24T13:58:03;3.02;;;2.58;;
14704;SDS011;7442;50.840;3.396;2023-06-24T14:00:32;3.08;;;2.40;;
14704;SDS011;7442;50.840;3.396;2023-06-24T14:03:00;2.92;;;2.30;;
14704;SDS011;7442;50.840;3.396;2023-06-24T14:05:27;4.75;;;2.98;;
14704;SDS011;7442;50.840;3.396;2023-06-24T14:07:55;4.40;;;2.40;;
14704;SDS011;7442;50.840;3.396;2023-06-24T14:10:23;2.40;;;2.20;;
14704;SDS011;7442;50.840;3.396;2023-06-24T14:12:50;2.85;;;2.05;;
14704;SDS011;7442;50.840;3.396;2023-06-24T14:15:18;3.98;;;2.52;;
14704;SDS011;7442;50.840;3.396;2023-06-24T14:17:46;2.40;;;2.15;;
14704;SDS011;7442;50.840;3.396;2023-06-24T14:20:14;2.65;;;2.40;;
14704;SDS011;7442;50.840;3.396;2023-06-24T14:22:42;3.12;;;2.20;;
14704;SDS011;7442;50.840;3.396;2023-06-24T14:25:10;2.50;;;2.30;;
14704;SDS011;7442;50.840;3.396;2023-06-24T14:27:38;2.85;;;2.55;;
14704;SDS011;7442;50.840;3.396;2023-06-24T14:30:07;2.65;;;2.45;;
14704;SDS011;7442;50.840;3.396;2023-06-24T14:32:35;2.77;;;2.42;;
14704;SDS011;7442;50.840;3.396;2023-06-24T14:35:03;4.03;;;2.58;;
14704;SDS011;7442;50.840;3.396;2023-06-24T14:37:31;3.12;;;2.15;;
14704;SDS011;7442;50.840;3.396;2023-06-24T14:39:59;3.02;;;2.65;;
14704;SDS011;7442;50.840;3.396;2023-06-24T14:42:26;4.45;;;2.72;;
14704;SDS011;7442;50.840;3.396;2023-06-24T14:44:54;5.10;;;2.47;;
14704;SDS011;7442;50.840;3.396;2023-06-24T14:47:22;3.37;;;2.42;;
14704;SDS011;7442;50.840;3.396;2023-06-24T14:49:50;9.48;;;2.40;;
14704;SDS011;7442;50.840;3.396;2023-06-24T14:52:18;3.70;;;2.40;;
14704;SDS011;7442;50.840;3.396;2023-06-24T14:54:48;2.30;;;2.10;;
14704;SDS011;7442;50.840;3.396;2023-06-24T14:57:16;2.40;;;2.12;;
14704;SDS011;7442;50.840;3.396;2023-06-24T14:59:44;2.58;;;2.20;;
14704;SDS011;7442;50.840;3.396;2023-06-24T15:02:12;2.70;;;2.30;;
14704;SDS011;7442;50.840;3.396;2023-06-24T15:04:40;2.95;;;2.58;;
14704;SDS011;7442;50.840;3.396;2023-06-24T15:07:09;2.33;;;2.08;;
14704;SDS011;7442;50.840;3.396;2023-06-24T15:09:37;3.67;;;2.37;;
14704;SDS011;7442;50.840;3.396;2023-06-24T15:12:05;2.90;;;2.60;;
14704;SDS011;7442;50.840;3.396;2023-06-24T15:14:33;2.70;;;2.50;;
14704;SDS011;7442;50.840;3.396;2023-06-24T15:17:01;2.77;;;2.17;;
14704;SDS011;7442;50.840;3.396;2023-06-24T15:19:29;2.20;;;2.10;;
14704;SDS011;7442;50.840;3.396;2023-06-24T15:21:56;3.17;;;2.75;;
14704;SDS011;7442;50.840;3.396;2023-06-24T15:24:24;3.42;;;2.22;;
14704;SDS011;7442;50.840;3.396;2023-06-24T15:27:11;3.37;;;2.20;;
14704;SDS011;7442;50.840;3.396;2023-06-24T15:29:57;2.60;;;2.27;;
14704;SDS011;7442;50.840;3.396;2023-06-24T15:32:43;2.52;;;2.33;;
14704;SDS011;7442;50.840;3.396;2023-06-24T15:35:30;8.28;;;2.30;;
14704;SDS011;7442;50.840;3.396;2023-06-24T15:38:17;3.87;;;2.47;;
14704;SDS011;7442;50.840;3.396;2023-06-24T15:41:03;4.75;;;2.22;;
14704;SDS011;7442;50.840;3.396;2023-06-24T15:43:50;5.62;;;2.33;;
14704;SDS011;7442;50.840;3.396;2023-06-24T15:46:36;2.40;;;2.12;;
14704;SDS011;7442;50.840;3.396;2023-06-24T15:49:23;4.65;;;2.85;;
14704;SDS011;7442;50.840;3.396;2023-06-24T15:52:09;3.37;;;2.77;;
14704;SDS011;7442;50.840;3.396;2023-06-24T15:54:55;2.60;;;2.37;;
14704;SDS011;7442;50.840;3.396;2023-06-24T15:57:42;2.72;;;2.52;;
14704;SDS011;7442;50.840;3.396;2023-06-24T16:00:28;4.25;;;2.70;;
14704;SDS011;7442;50.840;3.396;2023-06-24T16:03:15;4.92;;;2.60;;
14704;SDS011;7442;50.840;3.396;2023-06-24T16:06:01;4.53;;;2.37;;
14704;SDS011;7442;50.840;3.396;2023-06-24T16:08:49;2.50;;;2.30;;
14704;SDS011;7442;50.840;3.396;2023-06-24T16:11:35;3.87;;;2.70;;
14704;SDS011;7442;50.840;3.396;2023-06-24T16:14:21;4.12;;;2.30;;
14704;SDS011;7442;50.840;3.396;2023-06-24T16:17:08;3.30;;;2.80;;
14704;SDS011;7442;50.840;3.396;2023-06-24T16:19:54;3.45;;;2.70;;
14704;SDS011;7442;50.840;3.396;2023-06-24T16:22:40;2.83;;;2.52;;
14704;SDS011;7442;50.840;3.396;2023-06-24T16:25:27;3.75;;;2.67;;
14704;SDS011;7442;50.840;3.396;2023-06-24T16:28:14;4.58;;;2.72;;
14704;SDS011;7442;50.840;3.396;2023-06-24T16:31:01;5.67;;;2.92;;
14704;SDS011;7442;50.840;3.396;2023-06-24T16:33:48;11.60;;;3.60;;
14704;SDS011;7442;50.840;3.396;2023-06-24T16:36:34;6.08;;;2.90;;
14704;SDS011;7442;50.840;3.396;2023-06-24T16:39:20;4.92;;;2.70;;
14704;SDS011;7442;50.840;3.396;2023-06-24T16:42:07;6.83;;;2.47;;
14704;SDS011;7442;50.840;3.396;2023-06-24T16:44:53;6.58;;;2.50;;
14704;SDS011;7442;50.840;3.396;2023-06-24T16:47:40;4.42;;;2.42;;
14704;SDS011;7442;50.840;3.396;2023-06-24T16:50:26;4.67;;;2.47;;
14704;SDS011;7442;50.840;3.396;2023-06-24T16:53:12;3.08;;;2.65;;
14704;SDS011;7442;50.840;3.396;2023-06-24T16:55:59;3.25;;;2.40;;
14704;SDS011;7442;50.840;3.396;2023-06-24T16:58:45;3.42;;;2.58;;
14704;SDS011;7442;50.840;3.396;2023-06-24T17:01:32;3.92;;;2.65;;
14704;SDS011;7442;50.840;3.396;2023-06-24T17:04:18;4.08;;;2.40;;